createdAt,value
2019-05-05T00:00:37.533Z,3.80
2019-05-05T00:03:25.609Z,3.70
2019-05-05T00:05:57.711Z,3.70
2019-05-05T00:08:28.264Z,3.70
2019-05-05T00:11:18.655Z,3.70
2019-05-05T00:13:55.070Z,3.60
2019-05-05T00:16:44.999Z,3.60
2019-05-05T00:19:28.996Z,3.60
2019-05-05T00:21:47.109Z,3.60
2019-05-05T00:24:17.517Z,3.60
2019-05-05T00:26:47.993Z,3.60
2019-05-05T00:29:18.208Z,3.60
2019-05-05T00:31:48.645Z,3.60
2019-05-05T00:34:19.021Z,3.50
2019-05-05T00:36:49.653Z,3.50
2019-05-05T00:39:19.996Z,3.50
2019-05-05T00:41:50.211Z,3.50
2019-05-05T00:44:20.486Z,3.50
2019-05-05T00:46:58.564Z,3.60
2019-05-05T00:49:45.543Z,3.50
2019-05-05T00:52:08.549Z,3.50
2019-05-05T00:54:38.841Z,3.50
2019-05-05T00:57:08.974Z,3.50
2019-05-05T00:59:39.261Z,3.50
2019-05-05T01:02:20.252Z,3.50
2019-05-05T01:04:55.140Z,3.50
2019-05-05T01:07:25.748Z,3.50
2019-05-05T01:09:56.011Z,3.50
2019-05-05T01:12:26.832Z,3.50
2019-05-05T01:14:56.965Z,3.40
2019-05-05T01:17:27.369Z,3.50
2019-05-05T01:20:03.226Z,3.50
2019-05-05T01:22:29.770Z,3.40
2019-05-05T01:25:00.239Z,3.50
2019-05-05T01:27:30.656Z,3.50
2019-05-05T01:30:04.689Z,3.40
2019-05-05T01:32:44.493Z,3.50
2019-05-05T01:35:14.833Z,3.50
2019-05-05T01:37:59.038Z,3.40
2019-05-05T01:40:47.641Z,3.40
2019-05-05T01:43:17.860Z,3.30
2019-05-05T01:45:48.392Z,3.30
2019-05-05T01:48:18.610Z,3.30
2019-05-05T01:50:48.950Z,3.20
2019-05-05T01:53:19.305Z,3.30
2019-05-05T01:55:49.693Z,3.30
2019-05-05T01:58:20.613Z,3.30
2019-05-05T02:00:50.893Z,3.30
2019-05-05T02:03:21.244Z,3.20
2019-05-05T02:05:51.725Z,3.20
2019-05-05T02:08:24.301Z,3.20
2019-05-05T02:10:54.888Z,3.20
2019-05-05T02:13:25.545Z,3.20
2019-05-05T02:15:55.825Z,3.20
2019-05-05T02:18:26.093Z,3.10
2019-05-05T02:21:05.105Z,3.10
2019-05-05T02:23:36.988Z,3.20
2019-05-05T02:26:08.211Z,3.20
2019-05-05T02:28:45.228Z,3.20
2019-05-05T02:31:25.373Z,3.20
2019-05-05T02:33:56.855Z,3.20
2019-05-05T02:36:26.979Z,3.20
2019-05-05T02:38:57.378Z,3.30
2019-05-05T02:41:29.206Z,3.30
2019-05-05T02:43:59.569Z,3.30
2019-05-05T02:46:31.618Z,3.30
2019-05-05T02:49:05.456Z,3.30
2019-05-05T02:51:36.739Z,3.30
2019-05-05T02:54:07.802Z,3.30
2019-05-05T02:56:41.105Z,3.30
2019-05-05T02:59:14.716Z,3.30
2019-05-05T03:01:49.874Z,3.30
2019-05-05T03:04:20.828Z,3.30
2019-05-05T03:06:54.293Z,3.30
2019-05-05T03:09:26.772Z,3.30
2019-05-05T03:12:00.185Z,3.30
2019-05-05T03:14:34.125Z,3.40
2019-05-05T03:17:07.680Z,3.40
2019-05-05T03:19:38.961Z,3.40
2019-05-05T03:22:09.523Z,3.40
2019-05-05T03:24:40.445Z,3.40
2019-05-05T03:27:10.797Z,3.40
2019-05-05T03:29:41.105Z,3.40
2019-05-05T03:32:11.881Z,3.40
2019-05-05T03:34:44.393Z,3.40
2019-05-05T03:37:15.238Z,3.40
2019-05-05T03:39:48.284Z,3.50
2019-05-05T03:42:36.191Z,3.50
2019-05-05T03:45:08.570Z,3.40
2019-05-05T03:47:39.301Z,3.40
2019-05-05T03:50:09.814Z,3.40
2019-05-05T03:52:40.650Z,3.40
2019-05-05T03:55:13.644Z,3.50
2019-05-05T03:57:44.650Z,3.50
2019-05-05T04:00:18.050Z,3.50
2019-05-05T04:02:53.865Z,3.60
2019-05-05T04:05:25.945Z,3.60
2019-05-05T04:07:56.168Z,3.60
2019-05-05T04:10:26.388Z,3.70
2019-05-05T04:12:57.481Z,3.70
2019-05-05T04:15:28.285Z,3.80
2019-05-05T04:18:00.305Z,3.80
2019-05-05T04:20:33.571Z,3.80
2019-05-05T04:23:03.875Z,3.90
2019-05-05T04:25:34.917Z,4.00
2019-05-05T04:28:05.629Z,4.00
2019-05-05T04:30:35.913Z,4.10
2019-05-05T04:33:06.356Z,4.10
2019-05-05T04:35:36.640Z,4.20
2019-05-05T04:38:06.913Z,4.20
2019-05-05T04:40:37.123Z,4.20
2019-05-05T04:43:07.893Z,4.20
2019-05-05T04:45:38.185Z,4.30
2019-05-05T04:48:13.762Z,4.30
2019-05-05T04:50:57.598Z,4.30
2019-05-05T04:53:35.364Z,4.40
2019-05-05T04:56:05.782Z,4.40
2019-05-05T04:58:36.074Z,4.50
2019-05-05T05:01:06.428Z,4.50
2019-05-05T05:03:41.479Z,4.50
2019-05-05T05:06:14.640Z,4.60
2019-05-05T05:08:45.335Z,4.60
2019-05-05T05:11:15.637Z,4.70
2019-05-05T05:13:45.895Z,4.70
2019-05-05T05:16:16.168Z,4.80
2019-05-05T05:18:46.381Z,4.80
2019-05-05T05:21:16.656Z,4.90
2019-05-05T05:23:46.965Z,4.90
2019-05-05T05:26:17.245Z,5.00
2019-05-05T05:28:47.665Z,5.10
2019-05-05T05:31:18.122Z,5.10
2019-05-05T05:33:48.340Z,5.10
2019-05-05T05:36:18.549Z,5.10
2019-05-05T05:38:50.481Z,5.20
2019-05-05T05:41:39.152Z,5.20
2019-05-05T05:44:10.991Z,5.30
2019-05-05T05:46:54.822Z,5.40
2019-05-05T05:49:26.737Z,5.40
2019-05-05T05:51:56.945Z,5.50
2019-05-05T05:54:27.357Z,5.60
2019-05-05T05:56:57.791Z,5.70
2019-05-05T05:59:28.467Z,5.80
2019-05-05T06:02:09.113Z,5.90
2019-05-05T06:04:30.825Z,6.00
2019-05-05T06:07:01.229Z,6.10
2019-05-05T06:09:31.557Z,6.10
2019-05-05T06:12:03.567Z,6.30
2019-05-05T06:14:34.309Z,6.30
2019-05-05T06:17:04.923Z,6.30
2019-05-05T06:19:35.304Z,6.40
2019-05-05T06:22:05.509Z,6.50
2019-05-05T06:24:36.092Z,6.60
2019-05-05T06:27:06.482Z,6.70
2019-05-05T06:29:36.985Z,6.80
2019-05-05T06:32:07.399Z,6.90
2019-05-05T06:34:37.986Z,7.00
2019-05-05T06:37:08.260Z,7.00
2019-05-05T06:39:38.477Z,7.00
2019-05-05T06:42:19.105Z,7.00
2019-05-05T06:44:50.962Z,7.20
2019-05-05T06:47:23.670Z,7.30
2019-05-05T06:49:54.374Z,7.50
2019-05-05T06:52:24.918Z,7.40
2019-05-05T06:54:55.456Z,7.50
2019-05-05T06:57:25.855Z,7.70
2019-05-05T06:59:56.249Z,7.60
2019-05-05T07:02:26.647Z,7.80
2019-05-05T07:04:57.312Z,7.90
2019-05-05T07:07:27.870Z,8.20
2019-05-05T07:09:58.184Z,8.40
2019-05-05T07:12:28.725Z,8.70
2019-05-05T07:14:59.105Z,8.70
2019-05-05T07:17:29.376Z,8.50
2019-05-05T07:19:59.668Z,8.80
2019-05-05T07:22:30.069Z,8.80
2019-05-05T07:25:00.741Z,8.60
2019-05-05T07:27:31.192Z,8.60
2019-05-05T07:30:01.673Z,8.70
2019-05-05T07:32:33.765Z,8.60
2019-05-05T07:35:15.165Z,8.80
2019-05-05T07:37:45.665Z,8.70
2019-05-05T07:40:16.284Z,8.80
2019-05-05T07:42:46.701Z,8.80
2019-05-05T07:45:22.407Z,8.40
2019-05-05T07:47:49.247Z,8.40
2019-05-05T07:50:31.753Z,8.30
2019-05-05T07:52:51.815Z,8.50
2019-05-05T07:55:23.775Z,8.30
2019-05-05T07:57:54.358Z,8.40
2019-05-05T08:00:25.173Z,8.30
2019-05-05T08:02:55.691Z,8.60
2019-05-05T08:05:26.323Z,9.00
2019-05-05T08:07:56.826Z,9.00
2019-05-05T08:10:27.149Z,9.00
2019-05-05T08:12:57.346Z,9.20
2019-05-05T08:15:28.441Z,9.30
2019-05-05T08:18:05.897Z,9.50
2019-05-05T08:20:41.272Z,9.50
2019-05-05T08:23:28.216Z,9.60
2019-05-05T08:25:58.857Z,9.90
2019-05-05T08:28:31.056Z,10.50
2019-05-05T08:31:03.910Z,10.40
2019-05-05T08:33:34.537Z,10.30
2019-05-05T08:36:05.211Z,10.40
2019-05-05T08:38:35.684Z,10.20
2019-05-05T08:41:06.277Z,10.40
2019-05-05T08:43:36.697Z,10.30
2019-05-05T08:46:07.261Z,10.40
2019-05-05T08:48:37.557Z,10.40
2019-05-05T08:51:08.005Z,10.30
2019-05-05T08:53:44.788Z,10.50
2019-05-05T08:56:10.809Z,10.70
2019-05-05T08:58:41.136Z,11.00
2019-05-05T09:01:11.633Z,11.30
2019-05-05T09:03:44.150Z,11.70
2019-05-05T09:06:14.265Z,11.80
2019-05-05T09:08:44.541Z,12.10
2019-05-05T09:11:14.949Z,12.30
2019-05-05T09:13:45.421Z,12.80
2019-05-05T09:16:15.909Z,13.30
2019-05-05T09:19:04.148Z,12.70
2019-05-05T09:21:34.761Z,12.10
2019-05-05T09:24:16.032Z,12.00
2019-05-05T09:26:55.848Z,11.80
2019-05-05T09:29:30.897Z,11.80
2019-05-05T09:32:01.474Z,12.20
2019-05-05T09:34:34.014Z,12.60
2019-05-05T09:37:05.115Z,12.60
2019-05-05T09:39:35.421Z,12.40
2019-05-05T09:42:06.054Z,12.90
2019-05-05T09:44:36.539Z,13.00
2019-05-05T09:47:07.213Z,13.20
2019-05-05T09:49:37.521Z,13.20
2019-05-05T09:52:07.746Z,13.20
2019-05-05T09:54:38.296Z,12.90
2019-05-05T09:57:08.947Z,13.10
2019-05-05T09:59:40.297Z,13.70
2019-05-05T10:02:10.891Z,12.90
2019-05-05T10:04:41.393Z,12.90
2019-05-05T10:07:13.731Z,13.30
2019-05-05T10:09:44.087Z,14.00
2019-05-05T10:12:14.575Z,14.50
2019-05-05T10:14:45.225Z,14.70
2019-05-05T10:17:15.685Z,15.10
2019-05-05T10:19:46.330Z,15.10
2019-05-05T10:22:16.895Z,15.00
2019-05-05T10:24:49.925Z,15.00
2019-05-05T10:27:20.321Z,14.90
2019-05-05T10:29:51.025Z,15.20
2019-05-05T10:32:21.601Z,15.40
2019-05-05T10:34:53.733Z,15.30
2019-05-05T10:37:24.077Z,15.50
2019-05-05T10:39:54.894Z,15.30
2019-05-05T10:42:27.009Z,15.50
2019-05-05T10:44:57.469Z,15.30
2019-05-05T10:47:27.853Z,14.70
2019-05-05T10:49:58.469Z,14.80
2019-05-05T10:52:28.909Z,14.40
2019-05-05T10:54:59.293Z,14.60
2019-05-05T10:57:29.793Z,15.00
2019-05-05T11:00:10.173Z,15.40
2019-05-05T11:02:34.169Z,15.80
2019-05-05T11:05:08.386Z,15.90
2019-05-05T11:07:39.257Z,15.40
2019-05-05T11:10:10.526Z,15.50
2019-05-05T11:12:40.925Z,15.50
2019-05-05T11:15:11.645Z,15.60
2019-05-05T11:17:43.947Z,15.60
2019-05-05T11:20:14.909Z,15.30
2019-05-05T11:22:45.331Z,15.80
2019-05-05T11:25:15.814Z,15.80
2019-05-05T11:27:46.573Z,16.00
2019-05-05T11:30:26.770Z,16.10
2019-05-05T11:33:10.288Z,16.40
2019-05-05T11:35:48.420Z,16.40
2019-05-05T11:38:19.011Z,16.60
2019-05-05T11:40:49.661Z,16.40
2019-05-05T11:43:20.066Z,16.30
2019-05-05T11:45:50.664Z,16.10
2019-05-05T11:48:21.174Z,16.10
2019-05-05T11:50:53.837Z,16.00
2019-05-05T11:53:25.153Z,15.80
2019-05-05T11:55:55.957Z,15.60
2019-05-05T11:58:26.708Z,16.00
2019-05-05T12:00:57.405Z,16.00
2019-05-05T12:03:27.677Z,16.40
2019-05-05T12:05:58.124Z,16.80
2019-05-05T12:08:28.706Z,17.10
2019-05-05T12:11:00.539Z,17.40
2019-05-05T12:13:31.001Z,17.60
2019-05-05T12:16:04.541Z,17.40
2019-05-05T12:18:35.405Z,17.30
2019-05-05T12:21:05.896Z,17.10
2019-05-05T12:23:36.373Z,16.90
2019-05-05T12:26:24.347Z,16.60
2019-05-05T12:28:56.508Z,16.40
2019-05-05T12:31:28.669Z,16.30
2019-05-05T12:33:59.161Z,16.50
2019-05-05T12:36:29.761Z,16.50
2019-05-05T12:39:03.640Z,16.50
2019-05-05T12:41:33.616Z,16.70
2019-05-05T12:44:05.306Z,16.60
2019-05-05T12:46:37.338Z,16.50
2019-05-05T12:49:13.886Z,16.30
2019-05-05T12:51:44.544Z,15.90
2019-05-05T12:54:14.959Z,15.80
2019-05-05T12:56:45.521Z,15.70
2019-05-05T12:59:17.569Z,15.70
2019-05-05T13:01:48.001Z,15.50
2019-05-05T13:04:18.485Z,15.20
2019-05-05T13:06:49.070Z,14.70
2019-05-05T13:09:20.068Z,14.60
2019-05-05T13:11:50.642Z,14.30
2019-05-05T13:14:21.173Z,14.10
2019-05-05T13:16:53.907Z,13.70
2019-05-05T13:19:31.756Z,13.60
2019-05-05T13:22:09.932Z,13.60
2019-05-05T13:24:50.994Z,13.70
2019-05-05T13:27:34.288Z,13.90
2019-05-05T13:30:07.230Z,14.10
2019-05-05T13:32:37.852Z,14.10
2019-05-05T13:35:09.017Z,14.20
2019-05-05T13:37:39.666Z,14.20
2019-05-05T13:40:10.509Z,14.30
2019-05-05T13:42:41.001Z,14.30
2019-05-05T13:45:30.373Z,14.60
2019-05-05T13:48:00.866Z,14.80
2019-05-05T13:50:44.868Z,14.50
2019-05-05T13:53:15.285Z,14.50
2019-05-05T13:55:46.162Z,14.50
2019-05-05T13:58:16.968Z,14.30
2019-05-05T14:00:47.730Z,14.00
2019-05-05T14:03:18.293Z,14.00
2019-05-05T14:05:48.865Z,14.00
2019-05-05T14:08:19.269Z,14.00
2019-05-05T14:10:49.744Z,14.10
2019-05-05T14:13:20.181Z,14.20
2019-05-05T14:15:50.773Z,13.80
2019-05-05T14:18:23.090Z,13.70
2019-05-05T14:20:53.660Z,13.80
2019-05-05T14:23:24.826Z,13.90
2019-05-05T14:25:55.251Z,13.70
2019-05-05T14:28:26.005Z,13.80
2019-05-05T14:31:04.257Z,13.60
2019-05-05T14:33:36.277Z,13.00
2019-05-05T14:36:11.497Z,12.90
2019-05-05T14:38:44.422Z,13.10
2019-05-05T14:41:15.193Z,13.30
2019-05-05T14:43:45.752Z,13.20
2019-05-05T14:46:16.268Z,13.00
2019-05-05T14:48:46.864Z,13.20
2019-05-05T14:51:17.451Z,13.10
2019-05-05T14:53:48.209Z,12.90
2019-05-05T14:56:18.995Z,13.10
2019-05-05T14:58:49.601Z,13.20
2019-05-05T15:01:20.673Z,13.20
2019-05-05T15:03:53.421Z,12.80
2019-05-05T15:06:25.168Z,11.80
2019-05-05T15:09:00.534Z,11.60
2019-05-05T15:11:38.961Z,11.10
2019-05-05T15:14:09.571Z,11.10
2019-05-05T15:16:39.957Z,10.80
2019-05-05T15:19:10.475Z,10.70
2019-05-05T15:21:41.218Z,10.70
2019-05-05T15:24:13.691Z,10.40
2019-05-05T15:26:51.845Z,10.40
2019-05-05T15:29:16.078Z,10.40
2019-05-05T15:31:46.645Z,10.30
2019-05-05T15:34:17.348Z,10.20
2019-05-05T15:36:47.953Z,10.30
2019-05-05T15:39:18.537Z,10.30
2019-05-05T15:41:49.109Z,10.30
2019-05-05T15:44:19.385Z,10.30
2019-05-05T15:46:49.609Z,10.30
2019-05-05T15:49:19.909Z,10.10
2019-05-05T15:51:50.315Z,10.10
2019-05-05T15:54:20.674Z,10.20
2019-05-05T15:57:03.007Z,10.20
2019-05-05T15:59:23.933Z,10.20
2019-05-05T16:01:55.006Z,10.20
2019-05-05T16:04:25.358Z,10.20
2019-05-05T16:06:55.741Z,10.10
2019-05-05T16:09:25.949Z,10.10
2019-05-05T16:11:56.392Z,10.00
2019-05-05T16:14:26.958Z,10.00
2019-05-05T16:17:03.957Z,10.00
2019-05-05T16:19:35.049Z,10.00
2019-05-05T16:22:06.898Z,9.90
2019-05-05T16:24:39.133Z,10.00
2019-05-05T16:27:21.112Z,10.00
2019-05-05T16:29:41.793Z,9.90
2019-05-05T16:32:19.531Z,9.90
2019-05-05T16:34:44.200Z,9.90
2019-05-05T16:37:14.673Z,9.90
2019-05-05T16:39:45.196Z,9.80
2019-05-05T16:42:15.584Z,9.80
2019-05-05T16:44:45.792Z,9.70
2019-05-05T16:47:16.376Z,9.70
2019-05-05T16:49:47.242Z,9.70
2019-05-05T16:52:19.181Z,9.60
2019-05-05T16:55:00.225Z,9.70
2019-05-05T16:57:34.114Z,9.50
2019-05-05T17:00:02.955Z,9.40
2019-05-05T17:02:35.807Z,9.50
2019-05-05T17:05:06.064Z,9.50
2019-05-05T17:07:37.877Z,9.50
2019-05-05T17:10:08.733Z,9.40
2019-05-05T17:12:39.077Z,9.40
2019-05-05T17:15:11.437Z,9.40
2019-05-05T17:17:44.571Z,9.40
2019-05-05T17:20:17.325Z,9.40
2019-05-05T17:22:49.184Z,9.30
2019-05-05T17:25:19.661Z,9.40
2019-05-05T17:27:51.238Z,9.30
2019-05-05T17:30:26.701Z,9.30
2019-05-05T17:32:55.629Z,9.30
2019-05-05T17:35:26.096Z,9.20
2019-05-05T17:37:58.327Z,9.10
2019-05-05T17:40:39.183Z,9.10
2019-05-05T17:43:25.051Z,9.10
2019-05-05T17:45:55.069Z,9.00
2019-05-05T17:48:27.393Z,9.00
2019-05-05T17:51:05.297Z,8.90
2019-05-05T17:53:54.493Z,8.90
2019-05-05T17:56:24.380Z,8.90
2019-05-05T17:58:54.602Z,8.80
2019-05-05T18:01:25.225Z,8.70
2019-05-05T18:03:55.689Z,8.70
2019-05-05T18:06:27.549Z,8.70
2019-05-05T18:08:59.561Z,8.60
2019-05-05T18:11:40.593Z,8.60
2019-05-05T18:14:14.508Z,8.50
2019-05-05T18:16:44.759Z,8.50
2019-05-05T18:19:15.226Z,8.50
2019-05-05T18:21:45.577Z,8.40
2019-05-05T18:24:15.979Z,8.40
2019-05-05T18:26:46.333Z,8.40
2019-05-05T18:29:16.620Z,8.30
2019-05-05T18:31:46.928Z,8.30
2019-05-05T18:34:17.149Z,8.20
2019-05-05T18:36:47.625Z,8.20
2019-05-05T18:39:17.845Z,8.20
2019-05-05T18:41:52.265Z,8.10
2019-05-05T18:44:44.404Z,8.10
2019-05-05T18:47:18.494Z,8.00
2019-05-05T18:49:48.131Z,8.00
2019-05-05T18:52:18.688Z,7.90
2019-05-05T18:54:48.989Z,7.90
2019-05-05T18:57:19.221Z,7.80
2019-05-05T18:59:49.648Z,7.80
2019-05-05T19:02:34.662Z,7.80
2019-05-05T19:05:34.321Z,7.70
2019-05-05T19:08:14.188Z,7.70
2019-05-05T19:10:44.234Z,7.60
2019-05-05T19:13:14.901Z,7.60
2019-05-05T19:15:47.251Z,7.60
2019-05-05T19:18:17.254Z,7.50
2019-05-05T19:20:49.546Z,7.60
2019-05-05T19:23:20.056Z,7.50
2019-05-05T19:25:50.544Z,7.50
2019-05-05T19:28:20.864Z,7.50
2019-05-05T19:30:51.061Z,7.50
2019-05-05T19:33:21.240Z,7.40
2019-05-05T19:35:53.736Z,7.40
2019-05-05T19:38:23.801Z,7.40
2019-05-05T19:40:56.210Z,7.40
2019-05-05T19:43:26.233Z,7.30
2019-05-05T19:45:56.821Z,7.30
2019-05-05T19:48:27.044Z,7.30
2019-05-05T19:51:10.992Z,7.30
2019-05-05T19:53:41.412Z,7.30
2019-05-05T19:56:13.444Z,7.20
2019-05-05T19:58:57.653Z,7.20
2019-05-05T20:01:16.045Z,7.20
2019-05-05T20:03:46.519Z,7.20
2019-05-05T20:06:17.010Z,7.10
2019-05-05T20:08:47.488Z,7.10
2019-05-05T20:11:17.814Z,7.10
2019-05-05T20:13:48.027Z,7.10
2019-05-05T20:16:22.886Z,7.10
2019-05-05T20:18:54.667Z,7.10
2019-05-05T20:21:24.981Z,7.10
2019-05-05T20:23:55.197Z,7.10
2019-05-05T20:26:25.490Z,7.10
2019-05-05T20:29:03.972Z,7.10
2019-05-05T20:31:27.893Z,7.10
2019-05-05T20:33:59.932Z,7.10
2019-05-05T20:36:31.793Z,7.10
2019-05-05T20:39:04.216Z,7.10
2019-05-05T20:41:34.081Z,7.10
2019-05-05T20:44:05.922Z,7.10
2019-05-05T20:46:36.316Z,7.10
2019-05-05T20:49:06.729Z,7.10
2019-05-05T20:51:37.145Z,7.10
2019-05-05T20:54:07.345Z,7.10
2019-05-05T20:56:37.594Z,7.10
2019-05-05T20:59:07.858Z,7.10
2019-05-05T21:01:38.553Z,7.10
2019-05-05T21:04:08.773Z,7.00
2019-05-05T21:06:39.053Z,7.00
2019-05-05T21:09:09.439Z,7.00
2019-05-05T21:11:39.641Z,7.00
2019-05-05T21:14:09.812Z,7.00
2019-05-05T21:16:40.029Z,7.00
2019-05-05T21:19:10.340Z,7.00
2019-05-05T21:21:42.193Z,7.00
2019-05-05T21:24:12.397Z,7.10
2019-05-05T21:26:50.265Z,7.10
2019-05-05T21:29:20.477Z,7.00
2019-05-05T21:31:51.005Z,7.00
2019-05-05T21:34:21.281Z,7.00
2019-05-05T21:36:53.855Z,7.10
2019-05-05T21:39:24.866Z,7.00
2019-05-05T21:41:55.605Z,7.00
2019-05-05T21:44:25.809Z,7.00
2019-05-05T21:46:59.091Z,7.00
2019-05-05T21:49:28.056Z,7.00
2019-05-05T21:51:59.836Z,7.00
2019-05-05T21:54:46.974Z,7.00
2019-05-05T21:57:30.843Z,7.10
2019-05-05T22:00:01.221Z,7.00
2019-05-05T22:02:31.713Z,7.00
2019-05-05T22:05:03.881Z,7.00
2019-05-05T22:07:33.837Z,7.00
2019-05-05T22:10:05.549Z,7.00
2019-05-05T22:12:36.342Z,7.00
2019-05-05T22:15:07.404Z,7.00
2019-05-05T22:17:37.693Z,7.00
2019-05-05T22:20:09.689Z,7.00
2019-05-05T22:25:20.589Z,7.10
2019-05-05T22:27:50.833Z,7.00
2019-05-05T22:30:21.200Z,7.10
2019-05-05T22:32:51.413Z,7.00
2019-05-05T22:35:23.845Z,7.00
2019-05-05T22:37:53.689Z,7.00
2019-05-05T22:40:24.580Z,7.00
2019-05-05T22:42:55.101Z,7.00
2019-05-05T22:45:25.389Z,6.90
2019-05-05T22:47:55.787Z,6.90
2019-05-05T22:50:26.079Z,6.80
2019-05-05T22:52:56.661Z,6.80
2019-05-05T22:55:26.916Z,6.80
2019-05-05T22:57:57.129Z,6.80
2019-05-05T23:00:29.664Z,6.80
2019-05-05T23:03:10.060Z,6.80
2019-05-05T23:05:44.674Z,6.80
2019-05-05T23:08:18.110Z,6.80
2019-05-05T23:10:47.053Z,6.80
2019-05-05T23:13:17.801Z,6.80
2019-05-05T23:15:49.721Z,6.80
2019-05-05T23:18:25.440Z,6.80
2019-05-05T23:21:07.513Z,6.80
2019-05-05T23:23:56.385Z,6.80
2019-05-05T23:26:28.554Z,6.80
2019-05-05T23:28:58.861Z,6.90
2019-05-05T23:31:29.337Z,6.90
2019-05-05T23:33:59.823Z,6.80
2019-05-05T23:36:30.300Z,6.80
2019-05-05T23:39:00.557Z,6.90
2019-05-05T23:41:30.849Z,6.80
2019-05-05T23:44:03.532Z,6.80
2019-05-05T23:46:34.809Z,6.80
2019-05-05T23:49:05.373Z,6.90
2019-05-05T23:51:35.878Z,6.90
2019-05-05T23:54:06.549Z,6.90
2019-05-05T23:56:36.772Z,6.80
2019-05-05T23:59:07.310Z,6.80
